createdAt,value
2023-03-15T00:00:43.431Z,0.00
2023-03-15T00:01:43.501Z,0.00
2023-03-15T00:02:43.803Z,0.00
2023-03-15T00:03:43.797Z,0.00
2023-03-15T00:04:44.003Z,0.00
2023-03-15T00:05:44.040Z,0.00
2023-03-15T00:06:44.181Z,0.00
2023-03-15T00:07:44.394Z,0.00
2023-03-15T00:08:44.587Z,0.00
2023-03-15T00:09:44.691Z,0.00
2023-03-15T00:10:44.791Z,0.00
2023-03-15T00:11:44.936Z,0.00
2023-03-15T00:12:45.117Z,0.00
2023-03-15T00:13:45.270Z,0.00
2023-03-15T00:14:45.483Z,0.00
2023-03-15T00:15:45.635Z,0.00
2023-03-15T00:16:45.712Z,0.00
2023-03-15T00:17:45.813Z,0.00
2023-03-15T00:18:45.968Z,0.00
2023-03-15T00:19:46.186Z,0.00
2023-03-15T00:20:46.354Z,0.00
2023-03-15T00:21:46.469Z,0.00
2023-03-15T00:22:46.637Z,0.00
2023-03-15T00:23:46.787Z,0.00
2023-03-15T00:24:46.998Z,0.00
2023-03-15T00:25:47.114Z,0.00
2023-03-15T00:26:47.252Z,0.00
2023-03-15T00:27:47.397Z,0.00
2023-03-15T00:28:47.537Z,0.00
2023-03-15T00:29:47.726Z,0.00
2023-03-15T00:30:47.924Z,0.00
2023-03-15T00:31:48.024Z,0.00
2023-03-15T00:32:48.189Z,0.00
2023-03-15T00:33:48.287Z,0.00
2023-03-15T00:34:48.464Z,0.00
2023-03-15T00:35:48.600Z,0.00
2023-03-15T00:36:48.785Z,0.00
2023-03-15T00:37:48.876Z,0.00
2023-03-15T00:38:49.046Z,0.00
2023-03-15T00:39:49.145Z,0.00
2023-03-15T00:40:49.336Z,0.00
2023-03-15T00:41:49.413Z,0.00
2023-03-15T00:42:49.603Z,0.00
2023-03-15T00:43:49.750Z,0.00
2023-03-15T00:44:49.946Z,0.00
2023-03-15T00:45:50.154Z,0.00
2023-03-15T00:46:50.281Z,0.00
2023-03-15T00:47:50.389Z,0.00
2023-03-15T00:48:50.577Z,0.00
2023-03-15T00:49:50.722Z,0.00
2023-03-15T00:50:50.897Z,0.00
2023-03-15T00:51:50.999Z,0.00
2023-03-15T00:52:51.157Z,0.00
2023-03-15T00:53:51.319Z,0.00
2023-03-15T00:54:51.516Z,0.00
2023-03-15T00:55:51.593Z,0.00
2023-03-15T00:56:51.722Z,0.00
2023-03-15T00:57:51.882Z,0.00
2023-03-15T00:58:52.079Z,0.00
2023-03-15T00:59:52.242Z,0.00
2023-03-15T01:00:52.365Z,0.00
2023-03-15T01:01:52.532Z,0.00
2023-03-15T01:02:52.571Z,0.00
2023-03-15T01:03:52.705Z,0.00
2023-03-15T01:04:52.773Z,0.00
2023-03-15T01:05:52.990Z,0.00
2023-03-15T01:06:53.073Z,0.00
2023-03-15T01:07:53.258Z,0.00
2023-03-15T01:08:53.418Z,0.00
2023-03-15T01:09:53.572Z,0.00
2023-03-15T01:10:53.714Z,0.00
2023-03-15T01:11:53.885Z,0.00
2023-03-15T01:12:54.000Z,0.00
2023-03-15T01:13:54.221Z,0.00
2023-03-15T01:14:54.360Z,0.00
2023-03-15T01:15:54.541Z,0.00
2023-03-15T01:16:54.610Z,0.00
2023-03-15T01:17:54.805Z,0.00
2023-03-15T01:18:54.972Z,0.00
2023-03-15T01:19:55.085Z,0.00
2023-03-15T01:20:55.181Z,0.00
2023-03-15T01:21:55.287Z,0.00
2023-03-15T01:22:55.436Z,0.00
2023-03-15T01:23:55.617Z,0.00
2023-03-15T01:24:55.777Z,0.00
2023-03-15T01:25:55.918Z,0.00
2023-03-15T01:26:55.995Z,0.00
2023-03-15T01:27:56.156Z,0.00
2023-03-15T01:28:56.312Z,0.00
2023-03-15T01:29:56.533Z,0.00
2023-03-15T01:30:56.585Z,0.00
2023-03-15T01:31:56.673Z,0.00
2023-03-15T01:32:56.879Z,0.00
2023-03-15T01:33:56.980Z,0.00
2023-03-15T01:34:57.104Z,0.00
2023-03-15T01:35:57.411Z,0.00
2023-03-15T01:36:57.477Z,0.00
2023-03-15T01:37:57.549Z,0.00
2023-03-15T01:38:57.687Z,0.00
2023-03-15T01:39:57.884Z,0.00
2023-03-15T01:40:58.026Z,0.00
2023-03-15T01:41:58.210Z,0.00
2023-03-15T01:42:58.313Z,0.00
2023-03-15T01:43:58.493Z,0.00
2023-03-15T01:44:58.642Z,0.00
2023-03-15T01:45:58.825Z,0.00
2023-03-15T01:46:59.002Z,0.00
2023-03-15T01:47:59.073Z,0.00
2023-03-15T01:48:59.264Z,0.00
2023-03-15T01:49:59.383Z,0.00
2023-03-15T01:50:59.567Z,0.00
2023-03-15T01:51:59.677Z,0.00
2023-03-15T01:52:59.754Z,0.00
2023-03-15T01:53:59.965Z,0.00
2023-03-15T01:55:00.112Z,0.00
2023-03-15T01:56:00.250Z,0.00
2023-03-15T01:57:00.339Z,0.00
2023-03-15T01:58:00.492Z,0.00
2023-03-15T01:59:00.546Z,0.00
2023-03-15T02:00:00.735Z,0.00
2023-03-15T02:01:00.861Z,0.00
2023-03-15T02:02:01.102Z,0.00
2023-03-15T02:03:01.183Z,0.00
2023-03-15T02:04:01.360Z,0.00
2023-03-15T02:05:01.470Z,0.00
2023-03-15T02:06:01.602Z,0.00
2023-03-15T02:07:01.794Z,0.00
2023-03-15T02:08:01.980Z,0.00
2023-03-15T02:09:02.049Z,0.00
2023-03-15T02:10:02.192Z,0.00
2023-03-15T02:11:02.329Z,0.00
2023-03-15T02:12:02.462Z,0.00
2023-03-15T02:13:02.619Z,0.00
2023-03-15T02:14:02.768Z,0.00
2023-03-15T02:15:02.973Z,0.00
2023-03-15T02:16:03.142Z,0.00
2023-03-15T02:17:03.232Z,0.00
2023-03-15T02:18:03.378Z,0.00
2023-03-15T02:19:03.555Z,0.00
2023-03-15T02:20:03.729Z,0.00
2023-03-15T02:21:03.905Z,0.00
2023-03-15T02:22:03.997Z,0.00
2023-03-15T02:23:04.181Z,0.00
2023-03-15T02:24:04.291Z,0.00
2023-03-15T02:25:04.370Z,0.00
2023-03-15T02:26:04.565Z,0.00
2023-03-15T02:27:04.691Z,0.00
2023-03-15T02:28:04.887Z,0.00
2023-03-15T02:29:04.953Z,0.00
2023-03-15T02:30:05.137Z,0.00
2023-03-15T02:31:05.260Z,0.00
2023-03-15T02:32:05.392Z,0.00
2023-03-15T02:33:05.500Z,0.00
2023-03-15T02:34:05.687Z,0.00
2023-03-15T02:35:05.778Z,0.00
2023-03-15T02:36:06.039Z,0.00
2023-03-15T02:37:06.150Z,0.00
2023-03-15T02:38:06.249Z,0.00
2023-03-15T02:39:06.388Z,0.00
2023-03-15T02:40:06.512Z,0.00
2023-03-15T02:41:06.649Z,0.00
2023-03-15T02:42:06.797Z,0.00
2023-03-15T02:43:06.947Z,0.00
2023-03-15T02:44:07.163Z,0.00
2023-03-15T02:45:07.270Z,0.00
2023-03-15T02:46:07.493Z,0.00
2023-03-15T02:47:07.556Z,0.00
2023-03-15T02:48:07.729Z,0.00
2023-03-15T02:49:07.936Z,0.00
2023-03-15T02:50:08.043Z,0.00
2023-03-15T02:51:08.121Z,0.00
2023-03-15T02:52:08.297Z,0.00
2023-03-15T02:53:08.458Z,0.00
2023-03-15T02:54:08.677Z,0.00
2023-03-15T02:55:08.774Z,0.00
2023-03-15T02:56:08.950Z,0.00
2023-03-15T02:57:09.148Z,0.00
2023-03-15T02:58:09.338Z,0.00
2023-03-15T02:59:09.380Z,0.00
2023-03-15T03:00:09.558Z,0.00
2023-03-15T03:01:09.804Z,0.00
2023-03-15T03:02:09.979Z,0.00
2023-03-15T03:03:10.066Z,0.00
2023-03-15T03:04:10.238Z,0.00
2023-03-15T03:05:10.328Z,0.00
2023-03-15T03:06:10.519Z,0.00
2023-03-15T03:07:10.597Z,0.00
2023-03-15T03:08:10.782Z,0.00
2023-03-15T03:09:10.889Z,0.00
2023-03-15T03:10:11.086Z,0.00
2023-03-15T03:11:11.218Z,0.00
2023-03-15T03:12:11.348Z,0.00
2023-03-15T03:13:11.512Z,0.00
2023-03-15T03:14:11.657Z,0.00
2023-03-15T03:15:11.768Z,0.00
2023-03-15T03:16:11.928Z,0.00
2023-03-15T03:17:12.021Z,0.00
2023-03-15T03:18:12.206Z,0.00
2023-03-15T03:19:12.318Z,0.00
2023-03-15T03:20:12.433Z,0.00
2023-03-15T03:21:12.604Z,0.00
2023-03-15T03:22:12.661Z,0.00
2023-03-15T03:23:12.742Z,0.00
2023-03-15T03:24:12.922Z,0.00
2023-03-15T03:25:13.113Z,0.00
2023-03-15T03:26:13.221Z,0.00
2023-03-15T03:27:13.305Z,0.00
2023-03-15T03:28:13.479Z,0.00
2023-03-15T03:29:13.642Z,0.00
2023-03-15T03:30:13.853Z,0.00
2023-03-15T03:31:13.994Z,0.00
2023-03-15T03:32:14.110Z,0.00
2023-03-15T03:33:14.226Z,0.00
2023-03-15T03:34:14.429Z,0.00
2023-03-15T03:35:16.083Z,0.00
2023-03-15T03:36:14.667Z,0.00
2023-03-15T03:37:14.826Z,0.00
2023-03-15T03:38:15.004Z,0.00
2023-03-15T03:39:15.127Z,0.00
2023-03-15T03:40:15.288Z,0.00
2023-03-15T03:41:15.494Z,0.00
2023-03-15T03:42:15.654Z,0.00
2023-03-15T03:43:15.756Z,0.00
2023-03-15T03:44:15.951Z,0.00
2023-03-15T03:45:16.037Z,0.00
2023-03-15T03:46:16.296Z,0.00
2023-03-15T03:47:16.415Z,0.00
2023-03-15T03:48:16.517Z,0.00
2023-03-15T03:49:16.573Z,0.00
2023-03-15T03:50:16.753Z,0.00
2023-03-15T03:51:16.913Z,0.00
2023-03-15T03:52:17.136Z,0.00
2023-03-15T03:53:17.162Z,0.00
2023-03-15T03:54:17.780Z,0.00
2023-03-15T03:55:17.435Z,0.00
2023-03-15T03:56:17.606Z,0.00
2023-03-15T03:57:17.751Z,0.00
2023-03-15T03:58:17.817Z,0.00
2023-03-15T03:59:17.971Z,0.00
2023-03-15T04:00:18.143Z,0.00
2023-03-15T04:01:18.288Z,0.00
2023-03-15T04:02:18.671Z,0.00
2023-03-15T04:03:18.613Z,0.00
2023-03-15T04:04:18.823Z,0.00
2023-03-15T04:05:18.924Z,0.00
2023-03-15T04:06:19.121Z,0.00
2023-03-15T04:07:19.291Z,0.00
2023-03-15T04:08:19.430Z,0.00
2023-03-15T04:09:19.528Z,0.00
2023-03-15T04:10:19.683Z,0.00
2023-03-15T04:11:19.819Z,0.00
2023-03-15T04:12:20.046Z,0.00
2023-03-15T04:13:20.140Z,0.00
2023-03-15T04:14:20.255Z,0.00
2023-03-15T04:15:20.330Z,0.00
2023-03-15T04:16:20.493Z,0.00
2023-03-15T04:17:20.584Z,0.00
2023-03-15T04:18:20.788Z,0.00
2023-03-15T04:19:21.001Z,0.00
2023-03-15T04:20:21.007Z,0.00
2023-03-15T04:21:21.169Z,0.00
2023-03-15T04:22:21.357Z,0.00
2023-03-15T04:23:21.472Z,0.00
2023-03-15T04:24:21.598Z,0.00
2023-03-15T04:25:21.739Z,0.00
2023-03-15T04:26:21.908Z,0.00
2023-03-15T04:27:22.057Z,0.00
2023-03-15T04:28:22.266Z,0.00
2023-03-15T04:29:22.412Z,0.00
2023-03-15T04:30:22.569Z,0.00
2023-03-15T04:31:22.766Z,0.00
2023-03-15T04:32:22.893Z,0.00
2023-03-15T04:33:23.000Z,0.00
2023-03-15T04:34:23.232Z,0.00
2023-03-15T04:35:23.337Z,0.00
2023-03-15T04:36:23.546Z,0.00
2023-03-15T04:37:23.626Z,0.00
2023-03-15T04:38:23.799Z,0.00
2023-03-15T04:39:23.961Z,0.00
2023-03-15T04:40:24.175Z,0.00
2023-03-15T04:41:24.319Z,0.00
2023-03-15T04:42:24.440Z,0.00
2023-03-15T04:43:24.648Z,0.00
2023-03-15T04:44:24.816Z,0.00
2023-03-15T04:45:24.936Z,0.00
2023-03-15T04:46:25.249Z,0.00
2023-03-15T04:47:25.253Z,0.00
2023-03-15T04:48:25.427Z,0.00
2023-03-15T04:49:25.511Z,0.00
2023-03-15T04:50:25.751Z,0.00
2023-03-15T04:51:25.825Z,0.00
2023-03-15T04:52:26.703Z,0.00
2023-03-15T04:53:26.114Z,0.00
2023-03-15T04:54:26.291Z,0.00
2023-03-15T04:55:26.412Z,0.00
2023-03-15T04:56:26.531Z,0.00
2023-03-15T04:57:27.328Z,0.00
2023-03-15T04:58:26.821Z,0.00
2023-03-15T04:59:26.962Z,0.00
2023-03-15T05:00:27.861Z,0.00
2023-03-15T05:01:27.273Z,0.00
2023-03-15T05:02:28.062Z,0.00
2023-03-15T05:03:27.587Z,0.00
2023-03-15T05:04:27.751Z,0.00
2023-03-15T05:05:27.852Z,0.00
2023-03-15T05:06:28.073Z,0.00
2023-03-15T05:07:28.198Z,0.00
2023-03-15T05:08:28.364Z,0.00
2023-03-15T05:09:28.561Z,0.00
2023-03-15T05:10:28.660Z,0.00
2023-03-15T05:11:28.812Z,0.00
2023-03-15T05:12:28.949Z,0.00
2023-03-15T05:13:29.142Z,0.00
2023-03-15T05:14:29.230Z,0.00
2023-03-15T05:15:29.454Z,0.00
2023-03-15T05:16:29.537Z,0.00
2023-03-15T05:17:29.629Z,0.00
2023-03-15T05:18:29.748Z,0.00
2023-03-15T05:19:29.825Z,0.00
2023-03-15T05:20:30.014Z,0.00
2023-03-15T05:21:30.182Z,0.00
2023-03-15T05:22:30.362Z,0.00
2023-03-15T05:23:30.490Z,0.00
2023-03-15T05:24:30.578Z,0.00
2023-03-15T05:25:30.703Z,0.00
2023-03-15T05:26:30.790Z,0.00
2023-03-15T05:27:30.960Z,0.00
2023-03-15T05:28:31.135Z,0.00
2023-03-15T05:29:31.248Z,0.00
2023-03-15T05:30:31.391Z,0.00
2023-03-15T05:31:31.570Z,0.00
2023-03-15T05:32:31.714Z,0.00
2023-03-15T05:33:31.896Z,0.00
2023-03-15T05:34:32.064Z,0.00
2023-03-15T05:35:32.135Z,0.00
2023-03-15T05:36:32.278Z,0.00
2023-03-15T05:37:32.413Z,0.00
2023-03-15T05:38:32.620Z,0.00
2023-03-15T05:39:32.734Z,0.00
2023-03-15T05:40:32.886Z,0.00
2023-03-15T05:41:33.054Z,0.00
2023-03-15T05:42:33.203Z,0.00
2023-03-15T05:43:33.426Z,0.00
2023-03-15T05:44:33.581Z,5.62
2023-03-15T05:45:33.683Z,5.62
2023-03-15T05:46:33.774Z,5.62
2023-03-15T05:47:34.201Z,5.62
2023-03-15T05:48:34.181Z,5.62
2023-03-15T05:49:34.264Z,5.62
2023-03-15T05:50:34.357Z,5.62
2023-03-15T05:51:34.520Z,5.62
2023-03-15T05:52:35.348Z,5.62
2023-03-15T05:53:34.792Z,5.62
2023-03-15T05:54:34.982Z,5.62
2023-03-15T05:55:35.113Z,5.62
2023-03-15T05:56:35.240Z,11.25
2023-03-15T05:57:35.398Z,11.25
2023-03-15T05:58:35.486Z,11.25
2023-03-15T05:59:35.712Z,11.25
2023-03-15T06:00:35.754Z,11.25
2023-03-15T06:01:35.886Z,11.25
2023-03-15T06:02:35.972Z,11.25
2023-03-15T06:03:36.209Z,16.88
2023-03-15T06:04:36.482Z,22.50
2023-03-15T06:05:36.449Z,22.50
2023-03-15T06:06:36.603Z,22.50
2023-03-15T06:07:36.706Z,22.50
2023-03-15T06:08:36.878Z,28.12
2023-03-15T06:09:37.084Z,28.12
2023-03-15T06:10:37.137Z,22.50
2023-03-15T06:11:37.335Z,22.50
2023-03-15T06:12:37.422Z,28.12
2023-03-15T06:13:37.598Z,28.12
2023-03-15T06:14:37.736Z,28.12
2023-03-15T06:15:37.846Z,28.12
2023-03-15T06:16:38.015Z,33.75
2023-03-15T06:17:38.163Z,33.75
2023-03-15T06:18:38.214Z,33.75
2023-03-15T06:19:38.334Z,28.12
2023-03-15T06:20:38.509Z,33.75
2023-03-15T06:21:38.717Z,33.75
2023-03-15T06:22:38.854Z,28.12
2023-03-15T06:23:38.961Z,28.12
2023-03-15T06:24:39.042Z,33.75
2023-03-15T06:25:39.175Z,45.00
2023-03-15T06:26:39.318Z,50.62
2023-03-15T06:27:39.429Z,61.88
2023-03-15T06:28:39.525Z,67.50
2023-03-15T06:29:39.706Z,67.50
2023-03-15T06:30:39.813Z,67.50
2023-03-15T06:31:39.962Z,67.50
2023-03-15T06:32:40.155Z,67.50
2023-03-15T06:33:40.214Z,67.50
2023-03-15T06:34:40.303Z,78.75
2023-03-15T06:35:40.506Z,78.75
2023-03-15T06:36:40.653Z,78.75
2023-03-15T06:37:40.823Z,78.75
2023-03-15T06:38:40.872Z,78.75
2023-03-15T06:39:41.053Z,90.00
2023-03-15T06:40:41.210Z,95.62
2023-03-15T06:41:41.420Z,112.50
2023-03-15T06:42:41.532Z,118.12
2023-03-15T06:43:41.630Z,118.12
2023-03-15T06:44:41.751Z,118.12
2023-03-15T06:45:41.951Z,129.38
2023-03-15T06:46:42.039Z,146.25
2023-03-15T06:47:42.202Z,146.25
2023-03-15T06:48:42.365Z,140.62
2023-03-15T06:49:42.461Z,140.62
2023-03-15T06:50:47.370Z,140.62
2023-03-15T06:51:43.689Z,146.25
2023-03-15T06:52:42.878Z,146.25
2023-03-15T06:53:42.996Z,146.25
2023-03-15T06:54:43.159Z,151.88
2023-03-15T06:55:43.296Z,151.88
2023-03-15T06:56:43.402Z,157.50
2023-03-15T06:57:44.774Z,157.50
2023-03-15T06:58:43.711Z,163.12
2023-03-15T06:59:43.860Z,163.12
2023-03-15T07:00:43.930Z,168.75
2023-03-15T07:01:44.131Z,168.75
2023-03-15T07:02:44.372Z,168.75
2023-03-15T07:03:44.461Z,168.75
2023-03-15T07:04:44.552Z,168.75
2023-03-15T07:05:44.713Z,174.38
2023-03-15T07:06:44.883Z,174.38
2023-03-15T07:07:45.062Z,174.38
2023-03-15T07:08:45.210Z,174.38
2023-03-15T07:09:45.334Z,180.00
2023-03-15T07:10:45.493Z,185.62
2023-03-15T07:11:45.727Z,180.00
2023-03-15T07:12:45.811Z,185.62
2023-03-15T07:13:45.974Z,185.62
2023-03-15T07:14:46.080Z,185.62
2023-03-15T07:15:46.273Z,185.62
2023-03-15T07:16:46.368Z,185.62
2023-03-15T07:17:46.547Z,185.62
2023-03-15T07:18:46.679Z,191.25
2023-03-15T07:19:55.870Z,191.25
2023-03-15T07:20:47.934Z,191.25
2023-03-15T07:21:47.130Z,196.88
2023-03-15T07:22:47.282Z,196.88
2023-03-15T07:23:47.472Z,202.50
2023-03-15T07:24:47.616Z,208.12
2023-03-15T07:25:54.745Z,219.38
2023-03-15T07:26:48.831Z,219.38
2023-03-15T07:27:48.030Z,219.38
2023-03-15T07:28:48.111Z,225.00
2023-03-15T07:29:48.272Z,225.00
2023-03-15T07:30:48.361Z,236.25
2023-03-15T07:31:48.577Z,258.75
2023-03-15T07:32:48.969Z,275.62
2023-03-15T07:33:48.859Z,253.12
2023-03-15T07:34:49.039Z,236.25
2023-03-15T07:35:49.198Z,236.25
2023-03-15T07:36:49.272Z,230.62
2023-03-15T07:37:49.466Z,236.25
2023-03-15T07:38:49.537Z,241.88
2023-03-15T07:39:49.694Z,225.00
2023-03-15T07:40:49.863Z,225.00
2023-03-15T07:41:49.952Z,225.00
2023-03-15T07:42:50.126Z,225.00
2023-03-15T07:43:50.318Z,230.62
2023-03-15T07:44:50.418Z,230.62
2023-03-15T07:45:50.664Z,230.62
2023-03-15T07:46:50.833Z,236.25
2023-03-15T07:47:50.874Z,241.88
2023-03-15T07:48:50.952Z,241.88
2023-03-15T07:49:51.081Z,247.50
2023-03-15T07:50:51.280Z,247.50
2023-03-15T07:51:51.413Z,247.50
2023-03-15T07:52:51.530Z,253.12
2023-03-15T07:53:51.656Z,258.75
2023-03-15T07:54:51.940Z,275.62
2023-03-15T07:55:51.974Z,303.75
2023-03-15T07:56:52.038Z,315.00
2023-03-15T07:57:53.332Z,337.50
2023-03-15T07:58:52.421Z,348.75
2023-03-15T07:59:52.559Z,298.12
2023-03-15T08:00:52.686Z,292.50
2023-03-15T08:01:52.871Z,258.75
2023-03-15T08:02:53.124Z,230.62
2023-03-15T08:03:53.184Z,236.25
2023-03-15T08:04:53.218Z,247.50
2023-03-15T08:05:54.401Z,275.62
2023-03-15T08:06:53.464Z,286.88
2023-03-15T08:07:53.669Z,286.88
2023-03-15T08:08:53.794Z,292.50
2023-03-15T08:09:53.921Z,309.38
2023-03-15T08:10:53.978Z,343.12
2023-03-15T08:11:54.090Z,388.12
2023-03-15T08:12:54.307Z,410.62
2023-03-15T08:13:54.457Z,461.25
2023-03-15T08:14:54.560Z,472.50
2023-03-15T08:15:54.749Z,416.25
2023-03-15T08:16:54.843Z,360.00
2023-03-15T08:17:55.004Z,337.50
2023-03-15T08:18:55.084Z,343.12
2023-03-15T08:19:55.252Z,405.00
2023-03-15T08:20:55.323Z,416.25
2023-03-15T08:21:55.516Z,388.12
2023-03-15T08:22:55.681Z,399.38
2023-03-15T08:23:55.803Z,354.38
2023-03-15T08:24:55.942Z,298.12
2023-03-15T08:25:56.099Z,270.00
2023-03-15T08:26:56.208Z,264.38
2023-03-15T08:27:56.378Z,286.88
2023-03-15T08:28:56.516Z,298.12
2023-03-15T08:29:56.639Z,309.38
2023-03-15T08:30:56.698Z,326.25
2023-03-15T08:31:56.938Z,343.12
2023-03-15T08:32:57.054Z,348.75
2023-03-15T08:33:57.188Z,337.50
2023-03-15T08:34:57.310Z,331.88
2023-03-15T08:35:57.521Z,331.88
2023-03-15T08:36:57.604Z,348.75
2023-03-15T08:37:57.692Z,348.75
2023-03-15T08:38:57.805Z,371.25
2023-03-15T08:39:57.984Z,371.25
2023-03-15T08:40:58.047Z,376.88
2023-03-15T08:41:58.204Z,371.25
2023-03-15T08:42:58.404Z,337.50
2023-03-15T08:43:58.526Z,360.00
2023-03-15T08:44:58.684Z,371.25
2023-03-15T08:46:01.366Z,365.62
2023-03-15T08:46:59.002Z,348.75
2023-03-15T08:47:59.092Z,309.38
2023-03-15T08:48:59.206Z,326.25
2023-03-15T08:49:59.331Z,298.12
2023-03-15T08:50:59.432Z,320.62
2023-03-15T08:51:59.571Z,320.62
2023-03-15T08:52:59.692Z,331.88
2023-03-15T08:53:59.810Z,331.88
2023-03-15T08:54:59.962Z,337.50
2023-03-15T08:56:00.122Z,337.50
2023-03-15T08:57:00.253Z,343.12
2023-03-15T08:58:00.368Z,354.38
2023-03-15T08:59:00.510Z,360.00
2023-03-15T09:00:00.604Z,371.25
2023-03-15T09:01:00.790Z,388.12
2023-03-15T09:02:01.054Z,399.38
2023-03-15T09:03:01.053Z,427.50
2023-03-15T09:04:01.240Z,483.75
2023-03-15T09:05:01.341Z,534.38
2023-03-15T09:06:01.474Z,495.00
2023-03-15T09:07:01.600Z,399.38
2023-03-15T09:08:01.740Z,371.25
2023-03-15T09:09:01.818Z,433.12
2023-03-15T09:10:04.800Z,455.62
2023-03-15T09:11:02.035Z,455.62
2023-03-15T09:12:02.187Z,478.12
2023-03-15T09:13:02.245Z,506.25
2023-03-15T09:14:02.457Z,545.62
2023-03-15T09:15:02.587Z,1012.50
2023-03-15T09:16:02.747Z,1209.38
2023-03-15T09:17:02.940Z,753.75
2023-03-15T09:18:02.997Z,1215.00
2023-03-15T09:19:03.119Z,427.50
2023-03-15T09:20:03.219Z,1299.38
2023-03-15T09:21:03.368Z,1338.75
2023-03-15T09:22:16.325Z,1338.75
2023-03-15T09:23:04.592Z,1372.50
2023-03-15T09:24:03.779Z,1473.75
2023-03-15T09:25:03.869Z,1479.38
2023-03-15T09:26:04.081Z,1395.00
2023-03-15T09:27:04.262Z,652.50
2023-03-15T09:28:04.391Z,551.25
2023-03-15T09:29:04.500Z,1411.88
2023-03-15T09:30:04.707Z,1338.75
2023-03-15T09:31:04.835Z,798.75
2023-03-15T09:32:04.896Z,928.12
2023-03-15T09:33:05.350Z,843.75
2023-03-15T09:34:05.232Z,646.88
2023-03-15T09:35:05.480Z,1490.62
2023-03-15T09:36:05.634Z,1558.12
2023-03-15T09:37:05.732Z,1704.38
2023-03-15T09:38:05.828Z,1738.12
2023-03-15T09:39:06.062Z,1597.50
2023-03-15T09:40:06.206Z,1513.12
2023-03-15T09:41:06.290Z,1462.50
2023-03-15T09:42:06.713Z,1440.00
2023-03-15T09:43:06.547Z,1496.25
2023-03-15T09:44:06.640Z,1558.12
2023-03-15T09:45:06.784Z,1400.62
2023-03-15T09:46:06.914Z,483.75
2023-03-15T09:47:06.987Z,478.12
2023-03-15T09:48:07.095Z,1254.38
2023-03-15T09:49:07.214Z,995.62
2023-03-15T09:50:07.359Z,832.50
2023-03-15T09:51:07.526Z,714.38
2023-03-15T09:52:07.577Z,686.25
2023-03-15T09:53:07.714Z,680.62
2023-03-15T09:54:07.861Z,691.88
2023-03-15T09:55:07.987Z,708.75
2023-03-15T09:56:08.129Z,736.88
2023-03-15T09:57:08.226Z,759.38
2023-03-15T09:58:08.356Z,776.25
2023-03-15T09:59:08.490Z,680.62
2023-03-15T10:00:08.587Z,663.75
2023-03-15T10:01:08.842Z,765.00
2023-03-15T10:02:08.893Z,720.00
2023-03-15T10:03:09.008Z,714.38
2023-03-15T10:04:09.122Z,545.62
2023-03-15T10:05:09.246Z,545.62
2023-03-15T10:06:09.395Z,556.88
2023-03-15T10:07:09.474Z,675.00
2023-03-15T10:08:09.604Z,607.50
2023-03-15T10:09:09.708Z,832.50
2023-03-15T10:10:09.812Z,866.25
2023-03-15T10:11:09.948Z,838.12
2023-03-15T10:12:10.102Z,888.75
2023-03-15T10:13:10.197Z,922.50
2023-03-15T10:14:10.328Z,579.38
2023-03-15T10:15:10.475Z,511.88
2023-03-15T10:16:10.674Z,489.38
2023-03-15T10:17:10.787Z,466.88
2023-03-15T10:18:10.873Z,489.38
2023-03-15T10:19:10.970Z,725.62
2023-03-15T10:20:11.127Z,1935.00
2023-03-15T10:21:11.274Z,2019.38
2023-03-15T10:22:11.396Z,2058.75
2023-03-15T10:23:11.541Z,2103.75
2023-03-15T10:24:11.660Z,2109.38
2023-03-15T10:25:11.797Z,2103.75
2023-03-15T10:26:13.271Z,2109.38
2023-03-15T10:27:12.146Z,2115.00
2023-03-15T10:28:12.227Z,2115.00
2023-03-15T10:29:12.290Z,2115.00
2023-03-15T10:30:12.411Z,2126.25
2023-03-15T10:31:18.241Z,2131.88
2023-03-15T10:32:13.760Z,2176.88
2023-03-15T10:33:12.809Z,2255.62
2023-03-15T10:34:12.917Z,2334.38
2023-03-15T10:35:13.003Z,2373.75
2023-03-15T10:36:13.164Z,2418.75
2023-03-15T10:37:13.308Z,2475.00
2023-03-15T10:38:13.570Z,2446.88
2023-03-15T10:39:13.562Z,2396.25
2023-03-15T10:40:13.715Z,2362.50
2023-03-15T10:41:17.831Z,2300.62
2023-03-15T10:42:14.882Z,2323.12
2023-03-15T10:43:14.070Z,2323.12
2023-03-15T10:44:14.153Z,2340.00
2023-03-15T10:45:14.280Z,2385.00
2023-03-15T10:46:14.466Z,2385.00
2023-03-15T10:47:23.627Z,2356.88
2023-03-15T10:48:15.681Z,2328.75
2023-03-15T10:49:14.759Z,2311.88
2023-03-15T10:50:14.888Z,2300.62
2023-03-15T10:51:15.017Z,2368.12
2023-03-15T10:52:15.120Z,2351.25
2023-03-15T10:53:15.301Z,2385.00
2023-03-15T10:54:15.389Z,2458.12
2023-03-15T10:55:15.545Z,2604.38
2023-03-15T10:56:15.633Z,2542.50
2023-03-15T10:57:15.738Z,2559.38
2023-03-15T10:58:15.892Z,2604.38
2023-03-15T10:59:16.045Z,995.62
2023-03-15T11:00:16.114Z,2548.12
2023-03-15T11:01:16.247Z,2491.88
2023-03-15T11:02:16.361Z,2531.25
2023-03-15T11:03:16.554Z,2520.00
2023-03-15T11:04:16.728Z,2491.88
2023-03-15T11:05:16.698Z,2587.50
2023-03-15T11:06:16.802Z,2576.25
2023-03-15T11:07:16.930Z,2458.12
2023-03-15T11:08:17.072Z,2469.38
2023-03-15T11:09:17.283Z,2576.25
2023-03-15T11:10:17.289Z,2598.75
2023-03-15T11:11:17.428Z,2542.50
2023-03-15T11:12:19.386Z,2520.00
2023-03-15T11:13:17.706Z,2576.25
2023-03-15T11:14:17.896Z,2593.12
2023-03-15T11:15:17.962Z,2542.50
2023-03-15T11:16:18.185Z,2559.38
2023-03-15T11:17:18.243Z,2548.12
2023-03-15T11:18:18.348Z,2570.62
2023-03-15T11:19:18.502Z,2655.00
2023-03-15T11:20:18.692Z,2705.62
2023-03-15T11:21:18.783Z,2700.00
2023-03-15T11:22:18.871Z,2615.62
2023-03-15T11:23:19.010Z,2885.62
2023-03-15T11:24:19.193Z,2840.62
2023-03-15T11:25:19.286Z,2413.12
2023-03-15T11:26:31.594Z,2340.00
2023-03-15T11:27:20.627Z,821.25
2023-03-15T11:28:19.599Z,2238.75
2023-03-15T11:29:19.719Z,3690.00
2023-03-15T11:30:19.830Z,3875.62
2023-03-15T11:31:20.068Z,4421.25
2023-03-15T11:32:20.115Z,4905.00
2023-03-15T11:33:20.212Z,832.50
2023-03-15T11:34:20.337Z,4590.00
2023-03-15T11:35:20.452Z,4803.75
2023-03-15T11:36:20.606Z,2300.62
2023-03-15T11:37:20.729Z,607.50
2023-03-15T11:38:20.873Z,579.38
2023-03-15T11:39:20.985Z,866.25
2023-03-15T11:40:21.123Z,4556.25
2023-03-15T11:41:21.296Z,4938.75
2023-03-15T11:42:21.415Z,5214.38
2023-03-15T11:43:21.575Z,4933.12
2023-03-15T11:44:21.598Z,4685.62
2023-03-15T11:45:21.755Z,4505.62
2023-03-15T11:46:21.815Z,4843.12
2023-03-15T11:47:22.001Z,4995.00
2023-03-15T11:48:22.066Z,4449.38
2023-03-15T11:49:22.203Z,5000.62
2023-03-15T11:50:22.346Z,4815.00
2023-03-15T11:51:22.457Z,5011.88
2023-03-15T11:52:22.606Z,5085.00
2023-03-15T11:53:22.751Z,5208.75
2023-03-15T11:54:22.836Z,4820.62
2023-03-15T11:55:22.977Z,4741.88
2023-03-15T11:56:23.109Z,5242.50
2023-03-15T11:57:23.202Z,4826.25
2023-03-15T11:58:23.337Z,4291.88
2023-03-15T11:59:23.471Z,4663.12
2023-03-15T12:00:23.580Z,4702.50
2023-03-15T12:01:23.712Z,4978.12
2023-03-15T12:02:23.891Z,4719.38
2023-03-15T12:03:24.002Z,4275.00
2023-03-15T12:04:24.063Z,4410.00
2023-03-15T12:05:24.178Z,4449.38
2023-03-15T12:06:24.280Z,5017.50
2023-03-15T12:07:24.602Z,4685.62
2023-03-15T12:08:24.557Z,4218.75
2023-03-15T12:09:25.173Z,4010.62
2023-03-15T12:10:24.777Z,4764.38
2023-03-15T12:11:24.922Z,4854.38
2023-03-15T12:12:25.102Z,804.38
2023-03-15T12:13:25.190Z,624.38
2023-03-15T12:14:25.325Z,961.88
2023-03-15T12:15:25.490Z,894.38
2023-03-15T12:16:25.750Z,4466.25
2023-03-15T12:17:25.712Z,1293.75
2023-03-15T12:18:25.808Z,4775.62
2023-03-15T12:19:25.956Z,4140.00
2023-03-15T12:20:26.086Z,4342.50
2023-03-15T12:21:26.188Z,888.75
2023-03-15T12:22:26.360Z,714.38
2023-03-15T12:23:26.473Z,691.88
2023-03-15T12:24:26.585Z,826.88
2023-03-15T12:25:26.688Z,5073.75
2023-03-15T12:26:26.815Z,4955.62
2023-03-15T12:27:26.964Z,4950.00
2023-03-15T12:28:27.031Z,3645.00
2023-03-15T12:29:27.194Z,4938.75
2023-03-15T12:30:27.290Z,4758.75
2023-03-15T12:31:27.419Z,4584.38
2023-03-15T12:32:27.671Z,4696.88
2023-03-15T12:33:27.645Z,4477.50
2023-03-15T12:34:27.739Z,4415.62
2023-03-15T12:35:27.880Z,4702.50
2023-03-15T12:36:27.980Z,4573.12
2023-03-15T12:37:28.157Z,4595.62
2023-03-15T12:38:28.217Z,4528.12
2023-03-15T12:39:28.371Z,4708.12
2023-03-15T12:40:28.472Z,5203.12
2023-03-15T12:41:28.616Z,5051.25
2023-03-15T12:42:28.731Z,4567.50
2023-03-15T12:43:28.820Z,4826.25
2023-03-15T12:44:28.934Z,4786.88
2023-03-15T12:45:29.089Z,4809.38
2023-03-15T12:46:29.209Z,5090.62
2023-03-15T12:47:29.368Z,4910.62
2023-03-15T12:48:29.468Z,5169.38
2023-03-15T12:49:29.657Z,4950.00